Time;durP1;ratioP1;P1;durP2;ratioP2;P2;SDS_P1;SDS_P2;PMS_P1;PMS_P2;Temp;Humidity;BMP_temperature;BMP_pressure;BME280_temperature;BME280_humidity;BME280_pressure;Samples;Min_cycle;Max_cycle;Signal;HPM_P1;HPM_P2
2021/03/07 00:01:48;;;;;;;;;;;;;;;-3.59;100.00;99993.62;1694794;84;20159;-72
2021/03/07 00:04:19;;;;;;;;;;;;;;;-3.55;100.00;99998.91;1694805;84;20229;-71
2021/03/07 00:06:48;;;;;;;;;;;;;;;-3.59;100.00;99998.87;1694810;84;21206;-72
2021/03/07 00:09:15;;;;;;;;;;;;;;;-3.62;100.00;99988.69;1694662;84;20675;-73
2021/03/07 00:11:43;;;;;;;;;;;;;;;-3.57;100.00;99989.55;1694811;84;20364;-71
2021/03/07 00:14:11;;;;;;;;;;;;;;;-3.46;100.00;99978.79;1694815;84;20243;-72
2021/03/07 00:16:40;;;;;;;;;;;;;;;-3.53;100.00;99980.38;1694770;84;20166;-71
2021/03/07 00:19:10;;;;;;;;;;;;;;;-3.60;100.00;99975.39;1714767;83;21309;-71
2021/03/07 00:21:38;;;;;;;;;;;;;;;-3.61;100.00;99969.33;1715436;83;20519;-72
2021/03/07 00:24:06;;;;;;;;;;;;;;;-3.57;100.00;99973.30;1694682;84;20240;-72
2021/03/07 00:26:34;;;;;;;;;;;;;;;-3.74;100.00;99956.60;1694758;84;20116;-73
2021/03/07 00:29:02;;;;;;;;;;;;;;;-3.60;100.00;99963.58;1694791;84;20207;-73
2021/03/07 00:31:30;;;;;;;;;;;;;;;-3.66;100.00;99954.03;1694879;84;22163;-72
2021/03/07 00:33:58;;;;;;;;;;;;;;;-3.59;100.00;99952.12;1694744;84;20136;-73
2021/03/07 00:36:26;;;;;;;;;;;;;;;-3.59;100.00;99958.20;1694910;84;20490;-73
2021/03/07 00:38:55;;;;;;;;;;;;;;;-3.56;100.00;99946.57;1694544;84;20203;-72
2021/03/07 00:41:24;;;;;;;;;;;;;;;-3.51;100.00;99950.38;1695793;84;20124;-72
2021/03/07 00:43:52;;;;;;;;;;;;;;;-3.50;100.00;99944.17;1694868;84;22580;-72
2021/03/07 00:46:21;;;;;;;;;;;;;;;-3.60;100.00;99938.66;1694704;84;20137;-72
2021/03/07 00:48:50;;;;;;;;;;;;;;;-3.48;100.00;99926.47;1694782;84;20251;-73
2021/03/07 00:51:19;;;;;;;;;;;;;;;-3.41;100.00;99924.03;1714711;83;20506;-72
2021/03/07 00:53:48;;;;;;;;;;;;;;;-3.56;100.00;99915.08;1715344;83;20271;-73
2021/03/07 00:56:16;;;;;;;;;;;;;;;-3.45;100.00;99912.22;1704376;83;21668;-73
2021/03/07 00:58:44;;;;;;;;;;;;;;;-3.49;100.00;99910.87;1723617;83;20150;-72
2021/03/07 01:01:13;;;;;;;;;;;;;;;-3.47;100.00;99902.36;1723667;83;20199;-72
2021/03/07 01:03:43;;;;;;;;;;;;;;;-3.46;100.00;99895.63;1723676;83;20208;-72
2021/03/07 01:06:11;;;;;;;;;;;;;;;-3.36;100.00;99895.52;1723700;83;20168;-72
2021/03/07 01:08:40;;;;;;;;;;;;;;;-3.56;100.00;99886.22;1723661;83;21376;-72
2021/03/07 01:11:09;;;;;;;;;;;;;;;-3.40;100.00;99885.51;1723655;83;20219;-73
2021/03/07 01:13:37;;;;;;;;;;;;;;;-3.43;100.00;99877.92;1723683;83;20252;-72
2021/03/07 01:16:05;;;;;;;;;;;;;;;-3.30;100.00;99873.09;1723673;83;20213;-74
2021/03/07 01:18:33;;;;;;;;;;;;;;;-3.44;100.00;99854.80;1723705;83;20247;-74
2021/03/07 01:21:01;;;;;;;;;;;;;;;-3.40;100.00;99865.83;1723762;83;22298;-71
2021/03/07 01:23:30;;;;;;;;;;;;;;;-3.26;100.00;99850.77;1723646;83;20881;-73
2021/03/07 01:25:59;;;;;;;;;;;;;;;-3.35;100.00;99845.99;1723700;83;20252;-73
2021/03/07 01:28:27;;;;;;;;;;;;;;;-3.33;100.00;99844.51;1723669;83;20239;-73
2021/03/07 01:30:56;;;;;;;;;;;;;;;-3.41;100.00;99840.05;1723596;83;20626;-71
2021/03/07 01:33:24;;;;;;;;;;;;;;;-3.17;100.00;99847.71;1723719;83;21713;-73
2021/03/07 01:35:52;;;;;;;;;;;;;;;-3.16;100.00;99844.09;1723617;83;20597;-72
2021/03/07 01:38:21;;;;;;;;;;;;;;;-3.27;100.00;99838.64;1723714;83;20216;-72
2021/03/07 01:40:51;;;;;;;;;;;;;;;-3.18;100.00;99829.83;1723720;83;20447;-73
2021/03/07 01:43:20;;;;;;;;;;;;;;;-3.24;100.00;99835.20;1723667;83;20147;-73
2021/03/07 01:45:48;;;;;;;;;;;;;;;-3.36;100.00;99826.45;1723664;83;21142;-73
2021/03/07 01:48:17;;;;;;;;;;;;;;;-3.04;100.00;99823.98;1697566;83;21027;-71
2021/03/07 01:50:52;;;;;;;;;;;;;;;-3.20;100.00;99827.84;1723573;83;20259;-72
2021/03/07 01:53:21;;;;;;;;;;;;;;;-3.38;100.00;99820.53;1723595;83;20319;-71
2021/03/07 01:55:50;;;;;;;;;;;;;;;-3.31;100.00;99823.68;1727930;83;20159;-71
2021/03/07 01:58:25;;;;;;;;;;;;;;;-3.40;100.00;99807.59;1701976;84;21386;-71
2021/03/07 02:00:52;;;;;;;;;;;;;;;-3.33;100.00;99820.41;1701920;84;20236;-71
2021/03/07 02:03:20;;;;;;;;;;;;;;;-3.43;100.00;99806.56;1702012;84;20147;-72
2021/03/07 02:05:48;;;;;;;;;;;;;;;-3.35;100.00;99814.50;1701979;84;20122;-72
2021/03/07 02:08:17;;;;;;;;;;;;;;;-3.36;100.00;99808.08;1701944;84;20312;-72
2021/03/07 02:10:54;;;;;;;;;;;;;;;-3.43;100.00;99798.69;1701953;84;21218;-73
2021/03/07 02:13:30;;;;;;;;;;;;;;;-3.54;100.00;99795.86;1701930;84;20157;-73
2021/03/07 02:15:57;;;;;;;;;;;;;;;-3.33;100.00;99780.19;1701997;84;20162;-73
2021/03/07 02:18:26;;;;;;;;;;;;;;;-3.46;100.00;99770.95;1719012;83;20231;-73
2021/03/07 02:21:09;;;;;;;;;;;;;;;-3.60;100.00;99753.67;1702048;84;20253;-73
2021/03/07 02:23:55;;;;;;;;;;;;;;;-3.38;100.00;99771.51;1701965;84;21768;-73
2021/03/07 02:26:23;;;;;;;;;;;;;;;-3.39;100.00;99758.53;1701908;84;21115;-73
2021/03/07 02:28:51;;;;;;;;;;;;;;;-3.42;100.00;99756.23;1702073;84;20492;-72
2021/03/07 02:31:22;;;;;;;;;;;;;;;-3.46;100.00;99759.64;1701902;84;20301;-72
2021/03/07 02:34:00;;;;;;;;;;;;;;;-3.40;100.00;99754.28;1702046;84;20163;-73
2021/03/07 02:36:34;;;;;;;;;;;;;;;-3.33;100.00;99753.95;1718901;83;21301;-72
2021/03/07 02:39:02;;;;;;;;;;;;;;;-3.46;100.00;99742.09;1701994;84;20493;-74
2021/03/07 02:41:31;;;;;;;;;;;;;;;-3.49;100.00;99729.30;1701939;84;20512;-71
2021/03/07 02:44:02;;;;;;;;;;;;;;;-3.37;100.00;99741.64;1702002;84;20261;-72
2021/03/07 02:46:31;;;;;;;;;;;;;;;-3.35;100.00;99737.06;1702019;84;20181;-71
2021/03/07 02:49:02;;;;;;;;;;;;;;;-3.28;100.00;99730.19;1701967;84;21439;-73
2021/03/07 02:51:32;;;;;;;;;;;;;;;-3.45;100.00;99717.51;1701904;84;20141;-73
2021/03/07 02:54:02;;;;;;;;;;;;;;;-3.35;100.00;99727.88;1701934;84;20166;-73
2021/03/07 02:56:31;;;;;;;;;;;;;;;-3.34;100.00;99728.19;1701759;84;20205;-72
2021/03/07 02:59:01;;;;;;;;;;;;;;;-3.39;100.00;99706.04;1702217;84;20249;-71
2021/03/07 03:01:31;;;;;;;;;;;;;;;-3.30;100.00;99715.59;1702909;84;21219;-73
2021/03/07 03:04:02;;;;;;;;;;;;;;;-3.37;100.00;99701.45;1702167;84;20237;-72
2021/03/07 03:06:29;;;;;;;;;;;;;;;-3.32;100.00;99703.92;1702723;84;20158;-72
2021/03/07 03:08:59;;;;;;;;;;;;;;;-3.10;100.00;99702.98;1702356;84;20146;-72
2021/03/07 03:11:30;;;;;;;;;;;;;;;-3.19;100.00;99696.07;1702018;84;20146;-72
2021/03/07 03:13:58;;;;;;;;;;;;;;;-3.25;100.00;99681.30;1702057;84;22536;-73
2021/03/07 03:16:28;;;;;;;;;;;;;;;-3.27;100.00;99681.95;1702127;84;20240;-74
2021/03/07 03:19:00;;;;;;;;;;;;;;;-3.06;100.00;99692.00;1702222;84;20250;-72
2021/03/07 03:21:28;;;;;;;;;;;;;;;-3.14;100.00;99678.03;1678148;84;20125;-73
2021/03/07 03:23:56;;;;;;;;;;;;;;;-3.07;100.00;99675.90;1702058;84;20232;-72
2021/03/07 03:26:25;;;;;;;;;;;;;;;-3.17;100.00;99653.42;1702114;84;21377;-73
2021/03/07 03:28:54;;;;;;;;;;;;;;;-3.22;100.00;99649.14;1702007;84;20253;-73
2021/03/07 03:31:22;;;;;;;;;;;;;;;-3.22;100.00;99647.34;1702128;84;20205;-73
2021/03/07 03:33:51;;;;;;;;;;;;;;;-3.18;100.00;99632.91;1702114;84;20241;-73
2021/03/07 03:36:19;;;;;;;;;;;;;;;-3.31;100.00;99644.36;1702138;84;20225;-74
2021/03/07 03:38:51;;;;;;;;;;;;;;;-3.30;100.00;99640.27;1702047;84;21216;-72
2021/03/07 03:41:21;;;;;;;;;;;;;;;-3.14;100.00;99633.39;1702077;84;20142;-74
2021/03/07 03:43:57;;;;;;;;;;;;;;;-3.20;100.00;99626.18;1702041;84;20233;-72
2021/03/07 03:46:26;;;;;;;;;;;;;;;-3.11;100.00;99628.66;1702144;84;20949;-72
2021/03/07 03:48:59;;;;;;;;;;;;;;;-3.05;100.00;99623.23;1702179;84;20497;-73
2021/03/07 03:51:27;;;;;;;;;;;;;;;-3.06;100.00;99617.66;1702129;84;21136;-73
2021/03/07 03:53:55;;;;;;;;;;;;;;;-3.19;100.00;99605.50;1678163;84;20706;-73
2021/03/07 03:56:23;;;;;;;;;;;;;;;-3.06;100.00;99602.72;1702035;84;20209;-74
2021/03/07 03:58:51;;;;;;;;;;;;;;;-3.14;100.00;99590.06;1705354;84;20225;-73
2021/03/07 04:01:20;;;;;;;;;;;;;;;-3.00;100.00;99589.91;1705699;84;20516;-72
2021/03/07 04:03:49;;;;;;;;;;;;;;;-2.89;100.00;99586.46;1677920;84;21833;-72
2021/03/07 04:06:23;;;;;;;;;;;;;;;-2.94;100.00;99570.38;1731199;82;20143;-73
2021/03/07 04:08:52;;;;;;;;;;;;;;;-2.87;100.00;99573.14;1731034;83;20140;-73
2021/03/07 04:11:23;;;;;;;;;;;;;;;-2.84;100.00;99568.39;1732247;83;20171;-73
2021/03/07 04:13:52;;;;;;;;;;;;;;;-2.88;100.00;99561.82;1732388;83;20171;-73
2021/03/07 04:16:20;;;;;;;;;;;;;;;-2.92;100.00;99555.75;1732287;83;21783;-73
2021/03/07 04:18:51;;;;;;;;;;;;;;;-2.89;100.00;99554.94;1732238;83;20155;-72
2021/03/07 04:21:18;;;;;;;;;;;;;;;-2.95;100.00;99555.59;1732250;83;20155;-72
2021/03/07 04:23:46;;;;;;;;;;;;;;;-2.91;100.00;99544.28;1732217;83;20247;-73
2021/03/07 04:26:14;;;;;;;;;;;;;;;-2.92;100.00;99525.05;1732345;83;20247;-72
2021/03/07 04:28:42;;;;;;;;;;;;;;;-2.93;100.00;99524.73;1732289;83;21278;-73
2021/03/07 04:31:10;;;;;;;;;;;;;;;-2.86;100.00;99539.34;1732113;83;20185;-72
2021/03/07 04:33:38;;;;;;;;;;;;;;;-2.77;100.00;99529.61;1704721;83;20151;-72
2021/03/07 04:36:06;;;;;;;;;;;;;;;-2.78;100.00;99521.42;1676019;84;21100;-72
2021/03/07 04:38:34;;;;;;;;;;;;;;;-2.82;100.00;99519.61;1732204;83;20238;-73
2021/03/07 04:41:03;;;;;;;;;;;;;;;-2.83;100.00;99504.34;1703094;84;22523;-73
2021/03/07 04:43:49;;;;;;;;;;;;;;;-2.73;100.00;99508.59;1702995;84;20169;-72
2021/03/07 04:46:20;;;;;;;;;;;;;;;-2.77;100.00;99506.78;1732265;83;20139;-73
2021/03/07 04:48:48;;;;;;;;;;;;;;;-2.83;100.00;99491.71;1703054;84;20297;-73
2021/03/07 04:51:17;;;;;;;;;;;;;;;-2.71;100.00;99511.38;1703108;84;20511;-72
2021/03/07 04:53:45;;;;;;;;;;;;;;;-2.62;100.00;99496.42;1732307;83;22547;-73
2021/03/07 04:56:13;;;;;;;;;;;;;;;-2.52;100.00;99502.76;1703067;84;20283;-73
2021/03/07 04:58:41;;;;;;;;;;;;;;;-2.62;100.00;99496.42;1703000;83;20249;-72
2021/03/07 05:01:08;;;;;;;;;;;;;;;-2.56;100.00;99502.80;1732232;83;20227;-74
2021/03/07 05:03:36;;;;;;;;;;;;;;;-2.55;100.00;99488.16;1703067;84;20237;-73
2021/03/07 05:06:05;;;;;;;;;;;;;;;-2.52;100.00;99476.01;1703144;84;22543;-72
2021/03/07 05:08:34;;;;;;;;;;;;;;;-2.54;100.00;99486.37;1732159;83;20199;-73
2021/03/07 05:11:02;;;;;;;;;;;;;;;-2.44;100.00;99498.80;1703027;84;20162;-72
2021/03/07 05:13:30;;;;;;;;;;;;;;;-2.43;100.00;99484.66;1703024;84;20158;-72
2021/03/07 05:15:58;;;;;;;;;;;;;;;-2.23;100.00;99495.56;1703059;84;20221;-73
2021/03/07 05:18:28;;;;;;;;;;;;;;;-2.41;100.00;99488.75;1703107;84;22289;-72
2021/03/07 05:20:56;;;;;;;;;;;;;;;-2.35;100.00;99487.27;1732196;83;20167;-73
2021/03/07 05:23:24;;;;;;;;;;;;;;;-2.33;100.00;99488.39;1703060;84;20532;-73
2021/03/07 05:25:54;;;;;;;;;;;;;;;-2.22;100.00;99482.77;1732731;83;20306;-75
2021/03/07 05:28:23;;;;;;;;;;;;;;;-2.24;100.00;99490.81;1701473;84;20301;-73
2021/03/07 05:30:51;;;;;;;;;;;;;;;-2.04;100.00;99483.80;1732315;83;22554;-73
2021/03/07 05:33:20;;;;;;;;;;;;;;;-2.29;100.00;99461.59;1732295;83;20486;-72
2021/03/07 05:35:48;;;;;;;;;;;;;;;-2.12;100.00;99457.56;1732216;83;20140;-72
2021/03/07 05:38:17;;;;;;;;;;;;;;;-2.18;100.00;99479.62;1732187;83;20172;-73
2021/03/07 05:40:45;;;;;;;;;;;;;;;-2.04;100.00;99475.41;1732194;83;20124;-72
2021/03/07 05:43:13;;;;;;;;;;;;;;;-2.10;100.00;99465.59;1732276;83;22713;-73
2021/03/07 05:45:41;;;;;;;;;;;;;;;-2.01;100.00;99462.41;1732204;83;20494;-73
2021/03/07 05:48:11;;;;;;;;;;;;;;;-1.96;100.00;99458.27;1732229;83;20135;-73
2021/03/07 05:50:39;;;;;;;;;;;;;;;-1.81;100.00;99459.65;1732120;83;20239;-73
2021/03/07 05:53:07;;;;;;;;;;;;;;;-1.89;100.00;99450.48;1732298;83;20494;-72
2021/03/07 05:55:37;;;;;;;;;;;;;;;-1.75;100.00;99468.14;1732141;83;21213;-72
2021/03/07 05:58:05;;;;;;;;;;;;;;;-1.64;100.00;99464.77;1725571;83;20498;-73
2021/03/07 06:00:32;;;;;;;;;;;;;;;-1.61;100.00;99461.30;1713872;83;20215;-72
2021/03/07 06:03:02;;;;;;;;;;;;;;;-1.53;100.00;99453.83;1713816;83;20239;-74
2021/03/07 06:05:30;;;;;;;;;;;;;;;-1.73;100.00;99454.81;1714010;83;20511;-73
2021/03/07 06:07:57;;;;;;;;;;;;;;;-1.46;100.00;99460.02;1713830;83;21130;-74
2021/03/07 06:10:27;;;;;;;;;;;;;;;-1.56;100.00;99458.14;1713921;83;20708;-72
2021/03/07 06:13:02;;;;;;;;;;;;;;;-1.46;100.00;99461.34;1713912;83;20144;-72
2021/03/07 06:15:32;;;;;;;;;;;;;;;-1.56;100.00;99454.19;1661933;86;21340;-74
2021/03/07 06:18:19;;;;;;;;;;;;;;;-1.39;100.00;99460.95;1682648;85;20299;-74
2021/03/07 06:20:51;;;;;;;;;;;;;;;-1.28;100.00;99459.68;1692304;83;21296;-75
2021/03/07 06:23:34;;;;;;;;;;;;;;;-1.13;99.69;99450.48;1713032;83;20243;-73
2021/03/07 06:26:09;;;;;;;;;;;;;;;-1.03;98.75;99452.85;1713238;83;20244;-71
2021/03/07 06:28:38;;;;;;;;;;;;;;;-0.82;98.27;99441.59;1713047;83;20235;-72
2021/03/07 06:31:18;;;;;;;;;;;;;;;-0.99;98.50;99451.50;1712996;83;20290;-73
2021/03/07 06:33:46;;;;;;;;;;;;;;;-0.84;98.07;99450.18;1712973;83;21660;-72
2021/03/07 06:36:21;;;;;;;;;;;;;;;-0.93;97.78;99447.65;1687580;83;20651;-74
2021/03/07 06:38:53;;;;;;;;;;;;;;;-1.03;96.37;99418.09;1712963;83;20323;-74
2021/03/07 06:41:23;;;;;;;;;;;;;;;-0.93;97.14;99434.95;1693216;83;20364;-73
2021/03/07 06:43:51;;;;;;;;;;;;;;;-0.96;96.74;99427.42;1693213;83;20244;-72
2021/03/07 06:46:37;;;;;;;;;;;;;;;-0.74;95.93;99427.80;1693085;83;21382;-76
2021/03/07 06:49:06;;;;;;;;;;;;;;;-1.06;96.21;99425.05;1693521;83;20633;-73
2021/03/07 06:51:34;;;;;;;;;;;;;;;-0.67;95.20;99419.99;1693379;83;20252;-71
2021/03/07 06:54:19;;;;;;;;;;;;;;;-0.72;94.71;99419.22;1693309;83;20859;-73
2021/03/07 06:56:49;;;;;;;;;;;;;;;-0.67;94.38;99413.40;1693433;83;20237;-74
2021/03/07 06:59:25;;;;;;;;;;;;;;;-0.78;94.75;99408.62;1703617;83;21385;-72
2021/03/07 07:01:57;;;;;;;;;;;;;;;-0.78;94.55;99408.62;1723926;83;20587;-70
2021/03/07 07:04:45;;;;;;;;;;;;;;;-0.65;93.55;99396.40;1723964;82;20218;-71
2021/03/07 07:07:17;;;;;;;;;;;;;;;-0.80;94.45;99390.84;1721114;83;20270;-73
2021/03/07 07:10:06;;;;;;;;;;;;;;;-0.60;93.69;99392.40;1703155;84;20528;-73
2021/03/07 07:12:37;;;;;;;;;;;;;;;-0.64;93.16;99397.20;1705678;84;22085;-72
2021/03/07 07:15:28;;;;;;;;;;;;;;;-0.45;92.34;99391.34;1702334;84;20308;-73
2021/03/07 07:17:59;;;;;;;;;;;;;;;-0.43;92.63;99391.17;1705464;84;20323;-73
2021/03/07 07:20:40;;;;;;;;;;;;;;;-0.29;92.18;99385.03;1704069;84;20614;-74
2021/03/07 07:23:14;;;;;;;;;;;;;;;-0.45;92.16;99368.13;1707016;84;20307;-76
2021/03/07 07:25:52;;;;;;;;;;;;;;;-0.29;91.74;99363.94;1680967;84;21246;-74
2021/03/07 07:28:24;;;;;;;;;;;;;;;-0.23;90.34;99353.13;1708034;84;20209;-72
2021/03/07 07:31:14;;;;;;;;;;;;;;;-0.56;91.10;99349.66;1707600;84;20232;-72
2021/03/07 07:34:04;;;;;;;;;;;;;;;-0.14;90.10;99361.74;1707028;84;20742;-73
2021/03/07 07:36:54;;;;;;;;;;;;;;;-0.18;90.63;99354.69;1701470;84;20307;-72
2021/03/07 07:39:31;;;;;;;;;;;;;;;-0.06;89.16;99346.58;1691418;83;21356;-73
2021/03/07 07:42:35;;;;;;;;;;;;;;;0.03;88.43;99342.00;1724136;83;20259;-74
2021/03/07 07:48:01;;;;;;;;;;;;;;;0.11;88.14;99334.45;1696092;84;20283;-71
2021/03/07 07:50:34;;;;;;;;;;;;;;;0.00;88.74;99352.95;1695019;84;20236;-74
2021/03/07 07:53:14;;;;;;;;;;;;;;;-0.14;88.43;99330.09;1695657;84;21151;-71
2021/03/07 07:55:58;;;;;;;;;;;;;;;0.08;88.09;99347.52;1698916;83;20375;-74
2021/03/07 07:58:45;;;;;;;;;;;;;;;0.12;88.06;99341.34;1677873;85;20245;-73
2021/03/07 08:01:15;;;;;;;;;;;;;;;0.14;87.24;99339.34;1679868;85;20284;-75
2021/03/07 08:03:50;;;;;;;;;;;;;;;0.05;88.12;99346.59;1681135;85;20246;-73
2021/03/07 08:06:39;;;;;;;;;;;;;;;0.35;86.77;99345.90;1681038;84;21382;-76
2021/03/07 08:09:37;;;;;;;;;;;;;;;0.26;86.75;99335.67;1679911;84;21055;-75
2021/03/07 08:12:50;;;;;;;;;;;;;;;0.40;86.43;99339.53;1638242;86;20642;-73
2021/03/07 08:15:44;;;;;;;;;;;;;;;0.42;86.46;99326.15;1612227;87;20349;-72
2021/03/07 08:18:51;;;;;;;;;;;;;;;0.20;87.43;99326.70;1632820;86;20313;-73
2021/03/07 08:21:59;;;;;;;;;;;;;;;0.31;87.06;99312.15;1604195;88;20365;-74
2021/03/07 08:28:30;;;;;;;;;;;;;;;0.44;87.64;99305.62;1598748;89;20526;-74
2021/03/07 08:31:08;;;;;;;;;;;;;;;0.12;87.78;99292.04;1619291;88;20255;-74
2021/03/07 08:33:40;;;;;;;;;;;;;;;0.39;87.84;99298.30;1625063;88;20585;-73
2021/03/07 08:36:17;;;;;;;;;;;;;;;0.14;88.01;99296.59;1623859;88;21175;-73
2021/03/07 08:38:58;;;;;;;;;;;;;;;0.30;87.20;99297.33;1633672;86;20334;-75
2021/03/07 08:41:56;;;;;;;;;;;;;;;0.42;87.01;99274.66;1628722;87;20705;-72
2021/03/07 08:44:41;;;;;;;;;;;;;;;0.79;86.92;99298.52;1824028;78;20237;-72
2021/03/07 08:47:11;;;;;;;;;;;;;;;0.53;86.99;99276.73;1813416;78;20598;-73
2021/03/07 08:49:39;;;;;;;;;;;;;;;0.53;86.70;99285.17;1806121;79;21665;-73
2021/03/07 08:52:09;;;;;;;;;;;;;;;0.52;86.66;99268.52;1797075;79;20140;-75
2021/03/07 08:54:37;;;;;;;;;;;;;;;0.62;86.62;99278.72;1793767;79;20153;-75
2021/03/07 08:57:08;;;;;;;;;;;;;;;0.60;86.79;99283.38;1811282;79;20251;-74
2021/03/07 08:59:38;;;;;;;;;;;;;;;0.71;86.97;99275.39;1802498;79;20228;-74
2021/03/07 09:02:10;;;;;;;;;;;;;;;0.61;87.09;99271.79;1787399;79;22053;-74
2021/03/07 09:04:38;;;;;;;;;;;;;;;0.74;86.29;99276.34;1813717;79;20236;-73
2021/03/07 09:07:08;;;;;;;;;;;;;;;0.58;85.79;99266.39;1786734;79;20219;-71
2021/03/07 09:09:42;;;;;;;;;;;;;;;0.57;86.58;99264.77;1788881;79;20240;-71
2021/03/07 09:12:27;;;;;;;;;;;;;;;0.63;86.07;99277.19;1784260;79;20234;-75
2021/03/07 09:15:09;;;;;;;;;;;;;;;0.43;87.29;99238.80;1788046;79;22436;-75
2021/03/07 09:17:40;;;;;;;;;;;;;;;0.68;87.19;99272.64;1797137;79;20214;-73
2021/03/07 09:20:11;;;;;;;;;;;;;;;0.59;86.48;99257.98;1798095;79;20133;-72
2021/03/07 09:22:40;;;;;;;;;;;;;;;0.81;86.10;99264.78;1797937;79;20489;-75
2021/03/07 09:25:16;;;;;;;;;;;;;;;0.78;85.82;99259.06;1797187;79;20245;-74
2021/03/07 09:27:49;;;;;;;;;;;;;;;0.88;85.79;99271.39;1795759;79;21215;-73
2021/03/07 09:30:21;;;;;;;;;;;;;;;0.82;86.23;99249.74;1814398;79;20109;-71
2021/03/07 09:32:52;;;;;;;;;;;;;;;1.02;85.58;99266.47;1786715;79;20628;-72
2021/03/07 09:35:34;;;;;;;;;;;;;;;0.69;86.54;99253.66;1783182;80;20245;-73
2021/03/07 09:38:07;;;;;;;;;;;;;;;0.68;86.24;99256.79;1799356;79;20131;-73
2021/03/07 09:40:41;;;;;;;;;;;;;;;1.01;85.77;99265.36;1796752;79;21268;-73
2021/03/07 09:43:19;;;;;;;;;;;;;;;0.84;85.69;99250.36;1781936;80;20270;-73
2021/03/07 09:45:50;;;;;;;;;;;;;;;0.97;85.79;99262.29;1789305;79;20197;-74
2021/03/07 09:48:27;;;;;;;;;;;;;;;1.06;85.96;99253.17;1803555;79;20130;-74
2021/03/07 09:51:31;;;;;;;;;;;;;;;1.04;85.97;99261.80;1845305;77;20172;-72
2021/03/07 09:54:26;;;;;;;;;;;;;;;0.98;86.53;99259.13;1800401;79;20119;-73
2021/03/07 09:57:10;;;;;;;;;;;;;;;0.96;85.36;99244.81;1753948;80;20756;-74
2021/03/07 10:00:01;;;;;;;;;;;;;;;0.91;84.82;99255.65;1744657;81;20650;-73
2021/03/07 10:02:48;;;;;;;;;;;;;;;0.87;84.55;99239.91;1720276;83;20259;-73
2021/03/07 10:05:44;;;;;;;;;;;;;;;0.98;84.39;99240.15;1745893;82;20489;-74
2021/03/07 10:08:26;;;;;;;;;;;;;;;1.07;84.92;99249.50;1739250;82;20132;-73
2021/03/07 10:11:15;;;;;;;;;;;;;;;0.83;85.08;99227.09;1726752;82;21557;-72
2021/03/07 10:13:44;;;;;;;;;;;;;;;1.02;84.59;99241.88;1720444;83;20116;-72
2021/03/07 10:16:24;;;;;;;;;;;;;;;1.22;83.87;99239.27;1720151;83;20160;-74
2021/03/07 10:19:19;;;;;;;;;;;;;;;1.24;84.60;99230.64;1727800;82;20149;-74
2021/03/07 10:22:03;;;;;;;;;;;;;;;0.82;85.02;99231.25;1722472;82;20286;-74
2021/03/07 10:25:00;;;;;;;;;;;;;;;1.04;84.82;99241.17;1727635;82;21897;-77
2021/03/07 10:31:18;;;;;;;;;;;;;;;1.04;84.89;99216.06;1719949;83;20573;-74
2021/03/07 10:33:56;;;;;;;;;;;;;;;0.93;85.00;99208.70;1710642;83;20498;-73
2021/03/07 10:36:26;;;;;;;;;;;;;;;1.04;84.28;99220.84;1720514;83;20223;-78
2021/03/07 10:39:15;;;;;;;;;;;;;;;1.07;85.19;99198.47;1701202;83;21205;-73
2021/03/07 10:41:45;;;;;;;;;;;;;;;0.88;85.22;99192.63;1724091;82;20224;-72
2021/03/07 10:44:16;;;;;;;;;;;;;;;0.98;84.76;99188.61;1754251;81;20685;-74
2021/03/07 10:46:44;;;;;;;;;;;;;;;1.06;85.07;99195.53;1722913;82;20945;-76
2021/03/07 10:49:14;;;;;;;;;;;;;;;0.99;85.96;99188.09;1726205;82;20276;-73
2021/03/07 10:51:43;;;;;;;;;;;;;;;1.17;85.24;99180.39;1706862;82;21214;-73
2021/03/07 10:54:12;;;;;;;;;;;;;;;0.93;84.79;99167.74;1689657;84;20225;-75
2021/03/07 10:56:41;;;;;;;;;;;;;;;0.92;86.14;99172.73;1718861;82;20123;-74
2021/03/07 10:59:16;;;;;;;;;;;;;;;1.00;85.60;99157.48;1738364;82;20156;-75
2021/03/07 11:01:44;;;;;;;;;;;;;;;1.35;84.78;99173.20;1732274;82;20291;-73
2021/03/07 11:04:12;;;;;;;;;;;;;;;1.48;84.03;99173.19;1713324;83;22728;-73
2021/03/07 11:06:44;;;;;;;;;;;;;;;1.47;84.28;99171.58;1742877;82;20182;-73
2021/03/07 11:09:19;;;;;;;;;;;;;;;1.47;84.91;99146.45;1743203;82;20500;-74
2021/03/07 11:12:09;;;;;;;;;;;;;;;1.24;85.23;99143.38;1851567;77;20268;-74
2021/03/07 11:14:41;;;;;;;;;;;;;;;1.16;86.45;99156.81;1805124;78;20116;-72
2021/03/07 11:17:10;;;;;;;;;;;;;;;1.35;86.15;99141.47;1756861;78;22166;-73
2021/03/07 11:19:41;;;;;;;;;;;;;;;1.20;86.25;99142.16;1816293;78;20581;-75
2021/03/07 11:22:10;;;;;;;;;;;;;;;1.23;87.15;99131.20;1817463;78;20152;-75
2021/03/07 11:24:39;;;;;;;;;;;;;;;1.42;86.79;99121.61;1792563;78;20224;-76
2021/03/07 11:27:22;;;;;;;;;;;;;;;1.34;87.84;99134.53;1792350;78;20158;-76
2021/03/07 11:30:01;;;;;;;;;;;;;;;1.37;88.08;99130.18;1820356;78;20176;-74
2021/03/07 11:32:49;;;;;;;;;;;;;;;1.40;88.64;99128.95;1747775;80;20122;-73
2021/03/07 11:35:28;;;;;;;;;;;;;;;1.34;88.93;99118.67;1767361;80;20473;-74
2021/03/07 11:38:00;;;;;;;;;;;;;;;1.38;88.74;99127.83;1789704;80;20559;-73
2021/03/07 11:40:30;;;;;;;;;;;;;;;1.49;88.39;99121.94;1763886;80;20153;-74
2021/03/07 11:42:58;;;;;;;;;;;;;;;1.46;89.01;99137.38;1777309;80;22671;-74
2021/03/07 11:45:31;;;;;;;;;;;;;;;1.27;89.53;99117.85;1758383;80;20138;-75
2021/03/07 11:48:01;;;;;;;;;;;;;;;1.40;89.78;99107.28;1782774;80;20163;-72
2021/03/07 11:50:32;;;;;;;;;;;;;;;1.57;88.72;99084.35;1781678;80;20504;-73
2021/03/07 11:53:01;;;;;;;;;;;;;;;1.56;87.94;99082.74;1756547;80;20495;-73
2021/03/07 11:55:32;;;;;;;;;;;;;;;1.82;86.80;99109.14;1780775;80;21204;-73
2021/03/07 11:58:00;;;;;;;;;;;;;;;1.96;86.78;99096.70;1790209;80;20242;-74
2021/03/07 12:00:32;;;;;;;;;;;;;;;1.78;87.03;99101.30;1756128;80;20141;-76
2021/03/07 12:03:19;;;;;;;;;;;;;;;1.77;86.81;99045.45;1607783;88;20176;-73
2021/03/07 12:05:51;;;;;;;;;;;;;;;1.74;87.34;99101.44;1598594;89;20269;-72
2021/03/07 12:08:20;;;;;;;;;;;;;;;1.76;87.38;99095.41;1596135;89;20671;-77
2021/03/07 12:10:49;;;;;;;;;;;;;;;1.99;86.98;99067.16;1599085;89;20244;-74
2021/03/07 12:13:17;;;;;;;;;;;;;;;2.16;85.79;99070.14;1585298;89;20265;-72
2021/03/07 12:15:45;;;;;;;;;;;;;;;2.41;84.98;99071.53;1601649;88;20329;-77
2021/03/07 12:18:13;;;;;;;;;;;;;;;2.15;86.49;99073.79;1601696;89;20327;-74
2021/03/07 12:20:42;;;;;;;;;;;;;;;2.08;86.07;99076.48;1606294;89;21228;-74
2021/03/07 12:23:10;;;;;;;;;;;;;;;2.14;85.68;99069.02;1596988;89;20270;-74
2021/03/07 12:25:39;;;;;;;;;;;;;;;1.87;86.99;99063.53;1598749;89;20347;-72
2021/03/07 12:28:20;;;;;;;;;;;;;;;1.89;87.58;99060.17;1581497;89;20568;-75
2021/03/07 12:30:49;;;;;;;;;;;;;;;1.89;87.41;99064.14;1574573;90;20283;-73
2021/03/07 12:33:18;;;;;;;;;;;;;;;2.00;87.12;99071.41;1605190;86;21162;-74
2021/03/07 12:35:48;;;;;;;;;;;;;;;2.00;87.55;99068.77;1664081;84;20603;-76
2021/03/07 12:38:16;;;;;;;;;;;;;;;1.71;88.53;99055.52;1683130;85;20562;-72
2021/03/07 12:40:45;;;;;;;;;;;;;;;1.78;88.21;99057.64;1675280;85;20564;-73
2021/03/07 12:43:13;;;;;;;;;;;;;;;1.68;88.28;99039.56;1658412;86;20257;-74
2021/03/07 12:45:41;;;;;;;;;;;;;;;1.84;88.70;99052.86;1661493;84;21192;-74
2021/03/07 12:48:10;;;;;;;;;;;;;;;1.86;87.44;99032.29;1658919;85;20194;-74
2021/03/07 12:50:40;;;;;;;;;;;;;;;1.69;88.54;99049.14;1686313;85;20135;-75
2021/03/07 12:53:08;;;;;;;;;;;;;;;1.81;88.04;99051.92;1685940;85;20903;-73
2021/03/07 12:55:37;;;;;;;;;;;;;;;1.69;87.82;99049.63;1684415;83;20603;-75
2021/03/07 12:58:08;;;;;;;;;;;;;;;1.59;88.16;99024.93;1683147;85;21641;-75
2021/03/07 13:00:37;;;;;;;;;;;;;;;1.74;88.69;99039.74;1685858;85;20246;-76
2021/03/07 13:03:05;;;;;;;;;;;;;;;1.63;88.79;99051.28;1692554;84;20212;-73
2021/03/07 13:05:33;;;;;;;;;;;;;;;1.55;88.74;99042.25;1692829;83;20134;-74
2021/03/07 13:08:04;;;;;;;;;;;;;;;1.54;89.02;99029.23;1678548;84;20252;-73
2021/03/07 13:10:36;;;;;;;;;;;;;;;1.48;90.42;99052.84;1682781;84;20214;-73
2021/03/07 13:13:14;;;;;;;;;;;;;;;1.66;89.55;99054.02;1693775;84;20270;-74
2021/03/07 13:15:40;;;;;;;;;;;;;;;1.70;89.74;99044.13;1669010;83;20185;-73
2021/03/07 13:18:21;;;;;;;;;;;;;;;1.60;89.61;99025.25;1689632;84;20246;-74
2021/03/07 13:20:51;;;;;;;;;;;;;;;1.52;89.58;99020.20;1694051;84;20261;-73
2021/03/07 13:23:21;;;;;;;;;;;;;;;1.56;89.17;99020.58;1682660;84;21359;-73
2021/03/07 13:25:49;;;;;;;;;;;;;;;1.47;88.99;99026.11;1666771;84;20296;-73